sensor_id;sensor_type;location;lat;lon;timestamp;P1;durP1;ratioP1;P2;durP2;ratioP2
75220;SDS011;63802;53.232;6.570;2023-05-31T00:01:59;7.63;;;3.10;;
75220;SDS011;63802;53.232;6.570;2023-05-31T00:04:25;10.68;;;3.30;;
75220;SDS011;63802;53.232;6.570;2023-05-31T00:06:50;7.45;;;3.05;;
75220;SDS011;63802;53.232;6.570;2023-05-31T00:09:15;11.63;;;3.55;;
75220;SDS011;63802;53.232;6.570;2023-05-31T00:11:41;12.38;;;3.67;;
75220;SDS011;63802;53.232;6.570;2023-05-31T00:14:07;11.82;;;3.60;;
75220;SDS011;63802;53.232;6.570;2023-05-31T00:16:32;9.27;;;3.38;;
75220;SDS011;63802;53.232;6.570;2023-05-31T00:18:58;11.10;;;3.92;;
75220;SDS011;63802;53.232;6.570;2023-05-31T00:21:23;9.20;;;3.90;;
75220;SDS011;63802;53.232;6.570;2023-05-31T00:23:49;9.43;;;3.70;;
75220;SDS011;63802;53.232;6.570;2023-05-31T00:26:14;10.07;;;3.63;;
75220;SDS011;63802;53.232;6.570;2023-05-31T00:28:40;11.40;;;4.05;;
75220;SDS011;63802;53.232;6.570;2023-05-31T00:31:05;10.25;;;3.55;;
75220;SDS011;63802;53.232;6.570;2023-05-31T00:33:30;11.32;;;3.67;;
75220;SDS011;63802;53.232;6.570;2023-05-31T00:35:56;11.35;;;3.70;;
75220;SDS011;63802;53.232;6.570;2023-05-31T00:38:21;10.38;;;3.55;;
75220;SDS011;63802;53.232;6.570;2023-05-31T00:40:46;9.30;;;3.60;;
75220;SDS011;63802;53.232;6.570;2023-05-31T00:43:13;9.32;;;3.95;;
75220;SDS011;63802;53.232;6.570;2023-05-31T00:45:38;9.02;;;3.55;;
75220;SDS011;63802;53.232;6.570;2023-05-31T00:48:04;10.90;;;3.72;;
75220;SDS011;63802;53.232;6.570;2023-05-31T00:50:30;9.48;;;3.38;;
75220;SDS011;63802;53.232;6.570;2023-05-31T00:52:56;10.13;;;4.15;;
75220;SDS011;63802;53.232;6.570;2023-05-31T00:55:22;9.27;;;3.40;;
75220;SDS011;63802;53.232;6.570;2023-05-31T00:57:48;9.57;;;3.47;;
75220;SDS011;63802;53.232;6.570;2023-05-31T01:00:15;9.15;;;3.60;;
75220;SDS011;63802;53.232;6.570;2023-05-31T01:02:41;10.07;;;3.70;;
75220;SDS011;63802;53.232;6.570;2023-05-31T01:05:09;10.15;;;3.85;;
75220;SDS011;63802;53.232;6.570;2023-05-31T01:07:35;9.25;;;3.63;;
75220;SDS011;63802;53.232;6.570;2023-05-31T01:10:01;11.75;;;4.03;;
75220;SDS011;63802;53.232;6.570;2023-05-31T01:20:43;11.40;;;4.05;;
75220;SDS011;63802;53.232;6.570;2023-05-31T01:28:55;11.82;;;3.38;;
75220;SDS011;63802;53.232;6.570;2023-05-31T01:31:24;10.63;;;4.15;;
75220;SDS011;63802;53.232;6.570;2023-05-31T01:33:52;12.40;;;4.40;;
75220;SDS011;63802;53.232;6.570;2023-05-31T01:36:18;11.63;;;3.70;;
75220;SDS011;63802;53.232;6.570;2023-05-31T01:38:44;11.80;;;4.35;;
75220;SDS011;63802;53.232;6.570;2023-05-31T01:41:11;9.73;;;3.80;;
75220;SDS011;63802;53.232;6.570;2023-05-31T01:43:39;9.02;;;3.92;;
75220;SDS011;63802;53.232;6.570;2023-05-31T01:46:06;8.48;;;3.83;;
75220;SDS011;63802;53.232;6.570;2023-05-31T01:48:33;12.15;;;3.90;;
75220;SDS011;63802;53.232;6.570;2023-05-31T01:50:58;9.85;;;4.15;;
75220;SDS011;63802;53.232;6.570;2023-05-31T01:53:25;14.90;;;3.97;;
75220;SDS011;63802;53.232;6.570;2023-05-31T01:55:50;11.50;;;3.88;;
75220;SDS011;63802;53.232;6.570;2023-05-31T01:58:19;11.45;;;4.53;;
75220;SDS011;63802;53.232;6.570;2023-05-31T02:00:46;12.57;;;4.35;;
75220;SDS011;63802;53.232;6.570;2023-05-31T02:03:12;14.10;;;4.20;;
75220;SDS011;63802;53.232;6.570;2023-05-31T02:05:46;12.52;;;4.72;;
75220;SDS011;63802;53.232;6.570;2023-05-31T02:08:19;10.73;;;4.53;;
75220;SDS011;63802;53.232;6.570;2023-05-31T02:10:44;14.00;;;4.25;;
75220;SDS011;63802;53.232;6.570;2023-05-31T02:13:10;14.00;;;4.75;;
75220;SDS011;63802;53.232;6.570;2023-05-31T02:15:35;15.18;;;4.20;;
75220;SDS011;63802;53.232;6.570;2023-05-31T02:18:02;13.48;;;4.70;;
75220;SDS011;63802;53.232;6.570;2023-05-31T02:20:28;10.65;;;4.28;;
75220;SDS011;63802;53.232;6.570;2023-05-31T02:22:53;12.13;;;4.55;;
75220;SDS011;63802;53.232;6.570;2023-05-31T02:25:19;9.23;;;3.72;;
75220;SDS011;63802;53.232;6.570;2023-05-31T02:27:44;10.43;;;3.85;;
75220;SDS011;63802;53.232;6.570;2023-05-31T02:30:09;12.68;;;4.60;;
75220;SDS011;63802;53.232;6.570;2023-05-31T02:32:35;14.85;;;4.55;;
75220;SDS011;63802;53.232;6.570;2023-05-31T02:35:06;12.57;;;4.07;;
75220;SDS011;63802;53.232;6.570;2023-05-31T02:37:33;10.63;;;4.20;;
75220;SDS011;63802;53.232;6.570;2023-05-31T02:39:59;9.10;;;3.70;;
75220;SDS011;63802;53.232;6.570;2023-05-31T02:42:25;11.40;;;4.00;;
75220;SDS011;63802;53.232;6.570;2023-05-31T02:44:51;13.02;;;4.40;;
75220;SDS011;63802;53.232;6.570;2023-05-31T02:47:16;13.00;;;5.57;;
75220;SDS011;63802;53.232;6.570;2023-05-31T02:49:42;12.80;;;4.38;;
75220;SDS011;63802;53.232;6.570;2023-05-31T02:52:08;11.60;;;4.05;;
75220;SDS011;63802;53.232;6.570;2023-05-31T02:54:33;10.73;;;4.60;;
75220;SDS011;63802;53.232;6.570;2023-05-31T02:56:58;9.88;;;3.65;;
75220;SDS011;63802;53.232;6.570;2023-05-31T02:59:24;11.02;;;4.05;;
75220;SDS011;63802;53.232;6.570;2023-05-31T03:01:50;10.55;;;4.20;;
75220;SDS011;63802;53.232;6.570;2023-05-31T03:04:16;13.60;;;4.25;;
75220;SDS011;63802;53.232;6.570;2023-05-31T03:06:41;11.88;;;4.13;;
75220;SDS011;63802;53.232;6.570;2023-05-31T03:09:07;13.15;;;4.32;;
75220;SDS011;63802;53.232;6.570;2023-05-31T03:11:33;14.70;;;4.80;;
75220;SDS011;63802;53.232;6.570;2023-05-31T03:13:58;10.55;;;4.20;;
75220;SDS011;63802;53.232;6.570;2023-05-31T03:16:24;15.85;;;4.82;;
75220;SDS011;63802;53.232;6.570;2023-05-31T03:18:50;12.13;;;3.92;;
75220;SDS011;63802;53.232;6.570;2023-05-31T03:21:15;13.90;;;3.75;;
75220;SDS011;63802;53.232;6.570;2023-05-31T03:23:41;12.10;;;4.25;;
75220;SDS011;63802;53.232;6.570;2023-05-31T03:26:06;12.50;;;4.45;;
75220;SDS011;63802;53.232;6.570;2023-05-31T03:28:32;15.23;;;4.15;;
75220;SDS011;63802;53.232;6.570;2023-05-31T03:30:57;10.65;;;3.88;;
75220;SDS011;63802;53.232;6.570;2023-05-31T03:33:23;11.90;;;4.57;;
75220;SDS011;63802;53.232;6.570;2023-05-31T03:35:48;11.45;;;3.42;;
75220;SDS011;63802;53.232;6.570;2023-05-31T03:38:14;11.68;;;3.97;;
75220;SDS011;63802;53.232;6.570;2023-05-31T03:40:40;12.57;;;4.10;;
75220;SDS011;63802;53.232;6.570;2023-05-31T03:43:05;13.13;;;3.92;;
75220;SDS011;63802;53.232;6.570;2023-05-31T03:45:31;11.63;;;4.18;;
75220;SDS011;63802;53.232;6.570;2023-05-31T03:47:56;11.10;;;4.22;;
75220;SDS011;63802;53.232;6.570;2023-05-31T03:50:21;14.48;;;4.28;;
75220;SDS011;63802;53.232;6.570;2023-05-31T03:52:47;15.80;;;4.72;;
75220;SDS011;63802;53.232;6.570;2023-05-31T03:55:12;13.25;;;4.40;;
75220;SDS011;63802;53.232;6.570;2023-05-31T03:57:38;11.43;;;4.05;;
75220;SDS011;63802;53.232;6.570;2023-05-31T04:00:03;10.90;;;3.97;;
75220;SDS011;63802;53.232;6.570;2023-05-31T04:02:31;14.07;;;4.72;;
75220;SDS011;63802;53.232;6.570;2023-05-31T04:04:56;12.52;;;4.30;;
75220;SDS011;63802;53.232;6.570;2023-05-31T04:07:22;16.77;;;4.45;;
75220;SDS011;63802;53.232;6.570;2023-05-31T04:09:47;14.07;;;4.50;;
75220;SDS011;63802;53.232;6.570;2023-05-31T04:12:13;15.77;;;4.53;;
75220;SDS011;63802;53.232;6.570;2023-05-31T04:14:38;15.65;;;4.57;;
75220;SDS011;63802;53.232;6.570;2023-05-31T04:17:03;15.13;;;4.82;;
75220;SDS011;63802;53.232;6.570;2023-05-31T04:19:30;15.98;;;4.75;;
75220;SDS011;63802;53.232;6.570;2023-05-31T04:21:55;14.93;;;5.35;;
75220;SDS011;63802;53.232;6.570;2023-05-31T04:24:21;12.80;;;4.68;;
75220;SDS011;63802;53.232;6.570;2023-05-31T04:26:46;14.95;;;4.90;;
75220;SDS011;63802;53.232;6.570;2023-05-31T04:29:11;15.68;;;4.43;;
75220;SDS011;63802;53.232;6.570;2023-05-31T04:31:37;14.18;;;5.32;;
75220;SDS011;63802;53.232;6.570;2023-05-31T04:34:03;12.05;;;4.57;;
75220;SDS011;63802;53.232;6.570;2023-05-31T04:36:29;16.58;;;5.07;;
75220;SDS011;63802;53.232;6.570;2023-05-31T04:38:57;13.90;;;4.88;;
75220;SDS011;63802;53.232;6.570;2023-05-31T04:41:23;13.88;;;4.55;;
75220;SDS011;63802;53.232;6.570;2023-05-31T04:43:50;9.15;;;4.00;;
75220;SDS011;63802;53.232;6.570;2023-05-31T04:46:17;14.32;;;4.80;;
75220;SDS011;63802;53.232;6.570;2023-05-31T04:48:44;10.70;;;4.32;;
75220;SDS011;63802;53.232;6.570;2023-05-31T04:51:12;12.38;;;4.30;;
75220;SDS011;63802;53.232;6.570;2023-05-31T04:53:38;11.20;;;4.40;;
75220;SDS011;63802;53.232;6.570;2023-05-31T04:56:04;15.73;;;5.07;;
75220;SDS011;63802;53.232;6.570;2023-05-31T04:58:32;12.90;;;5.10;;
75220;SDS011;63802;53.232;6.570;2023-05-31T05:00:58;12.98;;;4.38;;
75220;SDS011;63802;53.232;6.570;2023-05-31T05:03:25;17.15;;;4.55;;
75220;SDS011;63802;53.232;6.570;2023-05-31T05:05:51;11.68;;;4.13;;
75220;SDS011;63802;53.232;6.570;2023-05-31T05:08:17;10.75;;;4.32;;
75220;SDS011;63802;53.232;6.570;2023-05-31T05:10:43;15.48;;;4.43;;
75220;SDS011;63802;53.232;6.570;2023-05-31T05:13:08;14.30;;;4.35;;
75220;SDS011;63802;53.232;6.570;2023-05-31T05:15:33;11.73;;;5.00;;
75220;SDS011;63802;53.232;6.570;2023-05-31T05:17:59;20.88;;;5.10;;
75220;SDS011;63802;53.232;6.570;2023-05-31T05:20:24;13.57;;;4.55;;
75220;SDS011;63802;53.232;6.570;2023-05-31T05:22:50;14.82;;;5.05;;
75220;SDS011;63802;53.232;6.570;2023-05-31T05:25:17;12.30;;;4.90;;
75220;SDS011;63802;53.232;6.570;2023-05-31T05:27:42;13.40;;;4.90;;
75220;SDS011;63802;53.232;6.570;2023-05-31T05:30:07;14.55;;;4.50;;
75220;SDS011;63802;53.232;6.570;2023-05-31T05:32:34;14.50;;;4.60;;
75220;SDS011;63802;53.232;6.570;2023-05-31T05:34:59;11.25;;;4.60;;
75220;SDS011;63802;53.232;6.570;2023-05-31T05:37:25;14.40;;;4.80;;
75220;SDS011;63802;53.232;6.570;2023-05-31T05:39:50;15.85;;;4.72;;
75220;SDS011;63802;53.232;6.570;2023-05-31T05:42:15;12.15;;;4.60;;
75220;SDS011;63802;53.232;6.570;2023-05-31T05:44:41;16.73;;;4.68;;
75220;SDS011;63802;53.232;6.570;2023-05-31T05:47:06;16.90;;;4.85;;
75220;SDS011;63802;53.232;6.570;2023-05-31T05:49:32;15.93;;;6.05;;
75220;SDS011;63802;53.232;6.570;2023-05-31T05:51:58;12.82;;;4.40;;
75220;SDS011;63802;53.232;6.570;2023-05-31T05:54:24;12.45;;;4.22;;
75220;SDS011;63802;53.232;6.570;2023-05-31T05:56:49;17.08;;;5.40;;
75220;SDS011;63802;53.232;6.570;2023-05-31T05:59:15;14.32;;;4.57;;
75220;SDS011;63802;53.232;6.570;2023-05-31T06:01:40;11.70;;;4.20;;
75220;SDS011;63802;53.232;6.570;2023-05-31T06:04:06;11.77;;;3.67;;
75220;SDS011;63802;53.232;6.570;2023-05-31T06:06:31;14.07;;;3.60;;
75220;SDS011;63802;53.232;6.570;2023-05-31T06:08:57;12.63;;;3.40;;
75220;SDS011;63802;53.232;6.570;2023-05-31T06:11:22;10.13;;;3.40;;
75220;SDS011;63802;53.232;6.570;2023-05-31T06:13:48;11.48;;;3.47;;
75220;SDS011;63802;53.232;6.570;2023-05-31T06:16:13;6.53;;;3.22;;
75220;SDS011;63802;53.232;6.570;2023-05-31T06:18:39;6.45;;;2.78;;
75220;SDS011;63802;53.232;6.570;2023-05-31T06:21:04;7.80;;;3.50;;
75220;SDS011;63802;53.232;6.570;2023-05-31T06:23:30;11.02;;;3.35;;
75220;SDS011;63802;53.232;6.570;2023-05-31T06:25:55;9.75;;;3.45;;
75220;SDS011;63802;53.232;6.570;2023-05-31T06:28:21;8.25;;;3.25;;
75220;SDS011;63802;53.232;6.570;2023-05-31T06:30:46;10.07;;;2.90;;
75220;SDS011;63802;53.232;6.570;2023-05-31T06:33:12;6.93;;;2.67;;
75220;SDS011;63802;53.232;6.570;2023-05-31T06:35:38;10.50;;;2.78;;
75220;SDS011;63802;53.232;6.570;2023-05-31T06:38:05;7.45;;;2.53;;
75220;SDS011;63802;53.232;6.570;2023-05-31T06:40:30;6.00;;;3.00;;
75220;SDS011;63802;53.232;6.570;2023-05-31T06:42:56;9.00;;;2.65;;
75220;SDS011;63802;53.232;6.570;2023-05-31T06:45:21;8.95;;;2.50;;
75220;SDS011;63802;53.232;6.570;2023-05-31T06:47:46;7.40;;;2.35;;
75220;SDS011;63802;53.232;6.570;2023-05-31T06:50:12;9.48;;;2.53;;
75220;SDS011;63802;53.232;6.570;2023-05-31T06:52:38;8.18;;;2.78;;
75220;SDS011;63802;53.232;6.570;2023-05-31T06:55:05;5.72;;;2.28;;
75220;SDS011;63802;53.232;6.570;2023-05-31T06:57:31;11.63;;;2.90;;
75220;SDS011;63802;53.232;6.570;2023-05-31T06:59:57;9.48;;;2.75;;
75220;SDS011;63802;53.232;6.570;2023-05-31T07:02:22;8.45;;;2.53;;
75220;SDS011;63802;53.232;6.570;2023-05-31T07:04:48;9.10;;;2.80;;
75220;SDS011;63802;53.232;6.570;2023-05-31T07:07:14;10.25;;;2.70;;
75220;SDS011;63802;53.232;6.570;2023-05-31T07:09:39;7.70;;;2.80;;
75220;SDS011;63802;53.232;6.570;2023-05-31T07:12:04;8.75;;;3.00;;
75220;SDS011;63802;53.232;6.570;2023-05-31T07:14:30;8.88;;;2.85;;
75220;SDS011;63802;53.232;6.570;2023-05-31T07:16:55;9.10;;;2.70;;
75220;SDS011;63802;53.232;6.570;2023-05-31T07:19:21;7.75;;;2.75;;
75220;SDS011;63802;53.232;6.570;2023-05-31T07:21:46;6.60;;;2.40;;
75220;SDS011;63802;53.232;6.570;2023-05-31T07:24:12;9.20;;;2.33;;
75220;SDS011;63802;53.232;6.570;2023-05-31T07:26:37;8.20;;;2.40;;
75220;SDS011;63802;53.232;6.570;2023-05-31T07:29:02;5.57;;;2.28;;
75220;SDS011;63802;53.232;6.570;2023-05-31T07:31:28;4.95;;;2.25;;
75220;SDS011;63802;53.232;6.570;2023-05-31T07:33:53;5.43;;;1.90;;
75220;SDS011;63802;53.232;6.570;2023-05-31T07:36:20;5.97;;;1.90;;
75220;SDS011;63802;53.232;6.570;2023-05-31T07:38:49;7.57;;;1.70;;
75220;SDS011;63802;53.232;6.570;2023-05-31T07:41:15;4.40;;;2.05;;
75220;SDS011;63802;53.232;6.570;2023-05-31T07:43:40;5.30;;;1.73;;
75220;SDS011;63802;53.232;6.570;2023-05-31T07:46:06;3.97;;;1.70;;
75220;SDS011;63802;53.232;6.570;2023-05-31T07:48:31;5.20;;;1.73;;
75220;SDS011;63802;53.232;6.570;2023-05-31T07:50:58;6.47;;;1.80;;
75220;SDS011;63802;53.232;6.570;2023-05-31T07:53:23;5.38;;;1.48;;
75220;SDS011;63802;53.232;6.570;2023-05-31T07:55:49;4.55;;;1.45;;
75220;SDS011;63802;53.232;6.570;2023-05-31T07:58:15;4.93;;;1.58;;
75220;SDS011;63802;53.232;6.570;2023-05-31T08:00:40;5.32;;;1.58;;
75220;SDS011;63802;53.232;6.570;2023-05-31T08:03:05;5.38;;;1.55;;
75220;SDS011;63802;53.232;6.570;2023-05-31T08:05:31;5.47;;;1.70;;
75220;SDS011;63802;53.232;6.570;2023-05-31T08:07:57;6.13;;;1.70;;
75220;SDS011;63802;53.232;6.570;2023-05-31T08:10:23;4.05;;;1.73;;
75220;SDS011;63802;53.232;6.570;2023-05-31T08:12:51;6.68;;;1.70;;
75220;SDS011;63802;53.232;6.570;2023-05-31T08:15:16;8.00;;;1.88;;
75220;SDS011;63802;53.232;6.570;2023-05-31T08:17:42;9.27;;;2.00;;
75220;SDS011;63802;53.232;6.570;2023-05-31T08:20:10;6.18;;;2.05;;
75220;SDS011;63802;53.232;6.570;2023-05-31T08:22:35;6.03;;;1.73;;
75220;SDS011;63802;53.232;6.570;2023-05-31T08:25:01;8.07;;;2.10;;
75220;SDS011;63802;53.232;6.570;2023-05-31T08:27:27;8.32;;;2.40;;
75220;SDS011;63802;53.232;6.570;2023-05-31T08:29:53;5.00;;;1.92;;
75220;SDS011;63802;53.232;6.570;2023-05-31T08:32:18;6.68;;;1.98;;
75220;SDS011;63802;53.232;6.570;2023-05-31T08:34:43;7.72;;;2.35;;
75220;SDS011;63802;53.232;6.570;2023-05-31T08:37:11;7.65;;;2.05;;
75220;SDS011;63802;53.232;6.570;2023-05-31T08:39:36;7.97;;;2.08;;
75220;SDS011;63802;53.232;6.570;2023-05-31T08:42:03;9.25;;;2.65;;
75220;SDS011;63802;53.232;6.570;2023-05-31T08:44:32;7.57;;;2.70;;
75220;SDS011;63802;53.232;6.570;2023-05-31T08:47:00;4.10;;;1.63;;
75220;SDS011;63802;53.232;6.570;2023-05-31T08:49:30;4.75;;;2.13;;
75220;SDS011;63802;53.232;6.570;2023-05-31T08:51:56;9.07;;;1.90;;
75220;SDS011;63802;53.232;6.570;2023-05-31T08:54:21;7.03;;;2.55;;
75220;SDS011;63802;53.232;6.570;2023-05-31T08:56:49;5.30;;;2.00;;
75220;SDS011;63802;53.232;6.570;2023-05-31T08:59:15;4.07;;;2.10;;
75220;SDS011;63802;53.232;6.570;2023-05-31T09:01:43;6.93;;;2.10;;
75220;SDS011;63802;53.232;6.570;2023-05-31T09:04:09;8.68;;;2.38;;
75220;SDS011;63802;53.232;6.570;2023-05-31T09:06:35;10.23;;;3.45;;
75220;SDS011;63802;53.232;6.570;2023-05-31T09:09:01;7.90;;;2.30;;
75220;SDS011;63802;53.232;6.570;2023-05-31T09:11:28;12.20;;;2.38;;
75220;SDS011;63802;53.232;6.570;2023-05-31T09:13:53;13.20;;;2.90;;
75220;SDS011;63802;53.232;6.570;2023-05-31T09:16:20;8.90;;;2.72;;
75220;SDS011;63802;53.232;6.570;2023-05-31T09:18:47;13.02;;;2.90;;
75220;SDS011;63802;53.232;6.570;2023-05-31T09:21:13;9.65;;;3.10;;
75220;SDS011;63802;53.232;6.570;2023-05-31T09:23:52;10.32;;;3.25;;
75220;SDS011;63802;53.232;6.570;2023-05-31T09:26:18;10.07;;;2.92;;
75220;SDS011;63802;53.232;6.570;2023-05-31T09:28:47;9.60;;;3.20;;
75220;SDS011;63802;53.232;6.570;2023-05-31T09:31:14;18.02;;;3.75;;
75220;SDS011;63802;53.232;6.570;2023-05-31T09:33:41;11.10;;;3.00;;
75220;SDS011;63802;53.232;6.570;2023-05-31T09:36:07;12.35;;;3.35;;
75220;SDS011;63802;53.232;6.570;2023-05-31T09:38:34;8.38;;;2.97;;
75220;SDS011;63802;53.232;6.570;2023-05-31T09:41:17;9.60;;;3.70;;
75220;SDS011;63802;53.232;6.570;2023-05-31T09:43:44;9.57;;;3.60;;
75220;SDS011;63802;53.232;6.570;2023-05-31T09:46:15;11.75;;;3.58;;
75220;SDS011;63802;53.232;6.570;2023-05-31T09:48:41;8.80;;;3.50;;
75220;SDS011;63802;53.232;6.570;2023-05-31T09:51:08;8.70;;;3.50;;
75220;SDS011;63802;53.232;6.570;2023-05-31T09:53:36;9.18;;;3.60;;
75220;SDS011;63802;53.232;6.570;2023-05-31T09:56:09;8.38;;;3.30;;
75220;SDS011;63802;53.232;6.570;2023-05-31T09:58:44;10.43;;;3.33;;
75220;SDS011;63802;53.232;6.570;2023-05-31T10:01:10;11.55;;;3.20;;
75220;SDS011;63802;53.232;6.570;2023-05-31T10:03:35;8.15;;;3.17;;
75220;SDS011;63802;53.232;6.570;2023-05-31T10:06:02;9.32;;;3.20;;
75220;SDS011;63802;53.232;6.570;2023-05-31T10:08:28;8.10;;;3.33;;
75220;SDS011;63802;53.232;6.570;2023-05-31T10:10:57;8.43;;;3.63;;
75220;SDS011;63802;53.232;6.570;2023-05-31T10:13:25;10.33;;;3.30;;
75220;SDS011;63802;53.232;6.570;2023-05-31T10:15:53;14.30;;;4.10;;
75220;SDS011;63802;53.232;6.570;2023-05-31T10:18:20;9.57;;;3.40;;
75220;SDS011;63802;53.232;6.570;2023-05-31T10:20:51;10.57;;;3.83;;
75220;SDS011;63802;53.232;6.570;2023-05-31T10:23:19;8.80;;;4.07;;
75220;SDS011;63802;53.232;6.570;2023-05-31T10:28:47;8.40;;;3.83;;
75220;SDS011;63802;53.232;6.570;2023-05-31T10:31:36;11.52;;;4.03;;
75220;SDS011;63802;53.232;6.570;2023-05-31T10:34:21;9.07;;;4.47;;
75220;SDS011;63802;53.232;6.570;2023-05-31T10:39:19;9.88;;;4.25;;
75220;SDS011;63802;53.232;6.570;2023-05-31T10:41:53;11.00;;;3.85;;
75220;SDS011;63802;53.232;6.570;2023-05-31T10:44:33;8.32;;;3.95;;
75220;SDS011;63802;53.232;6.570;2023-05-31T10:47:05;7.43;;;3.65;;
75220;SDS011;63802;53.232;6.570;2023-05-31T10:49:34;10.10;;;3.70;;
75220;SDS011;63802;53.232;6.570;2023-05-31T10:52:05;10.57;;;4.20;;
75220;SDS011;63802;53.232;6.570;2023-05-31T10:54:32;7.78;;;3.40;;
75220;SDS011;63802;53.232;6.570;2023-05-31T10:56:58;12.25;;;3.90;;
75220;SDS011;63802;53.232;6.570;2023-05-31T10:59:27;10.90;;;3.87;;
75220;SDS011;63802;53.232;6.570;2023-05-31T11:01:52;9.50;;;3.35;;
75220;SDS011;63802;53.232;6.570;2023-05-31T11:04:19;7.68;;;3.60;;
75220;SDS011;63802;53.232;6.570;2023-05-31T11:06:46;7.65;;;3.50;;
75220;SDS011;63802;53.232;6.570;2023-05-31T11:09:13;9.45;;;3.30;;
75220;SDS011;63802;53.232;6.570;2023-05-31T11:16:32;10.38;;;3.65;;
75220;SDS011;63802;53.232;6.570;2023-05-31T11:19:03;9.07;;;3.85;;
75220;SDS011;63802;53.232;6.570;2023-05-31T11:21:51;10.57;;;3.55;;
75220;SDS011;63802;53.232;6.570;2023-05-31T11:26:54;6.78;;;2.70;;
75220;SDS011;63802;53.232;6.570;2023-05-31T11:29:22;7.88;;;2.50;;
75220;SDS011;63802;53.232;6.570;2023-05-31T11:34:33;8.35;;;3.10;;
75220;SDS011;63802;53.232;6.570;2023-05-31T11:37:00;9.30;;;3.35;;
75220;SDS011;63802;53.232;6.570;2023-05-31T11:39:27;5.20;;;2.42;;
75220;SDS011;63802;53.232;6.570;2023-05-31T11:41:53;9.30;;;3.05;;
75220;SDS011;63802;53.232;6.570;2023-05-31T11:44:20;8.50;;;3.05;;
75220;SDS011;63802;53.232;6.570;2023-05-31T11:46:53;7.22;;;3.15;;
75220;SDS011;63802;53.232;6.570;2023-05-31T11:49:29;9.35;;;2.90;;
75220;SDS011;63802;53.232;6.570;2023-05-31T11:51:56;9.00;;;3.47;;
75220;SDS011;63802;53.232;6.570;2023-05-31T11:54:25;7.47;;;2.65;;
75220;SDS011;63802;53.232;6.570;2023-05-31T11:56:54;7.97;;;2.67;;
75220;SDS011;63802;53.232;6.570;2023-05-31T11:59:30;7.80;;;2.40;;
75220;SDS011;63802;53.232;6.570;2023-05-31T12:02:01;7.50;;;2.95;;
75220;SDS011;63802;53.232;6.570;2023-05-31T12:07:03;7.43;;;2.95;;
75220;SDS011;63802;53.232;6.570;2023-05-31T12:09:32;6.68;;;2.60;;
75220;SDS011;63802;53.232;6.570;2023-05-31T12:11:59;7.65;;;2.50;;
75220;SDS011;63802;53.232;6.570;2023-05-31T12:14:25;7.28;;;2.90;;
75220;SDS011;63802;53.232;6.570;2023-05-31T12:16:51;5.50;;;2.80;;
75220;SDS011;63802;53.232;6.570;2023-05-31T12:19:17;5.90;;;2.90;;
75220;SDS011;63802;53.232;6.570;2023-05-31T12:21:43;5.70;;;2.88;;
75220;SDS011;63802;53.232;6.570;2023-05-31T12:24:12;9.02;;;3.22;;
75220;SDS011;63802;53.232;6.570;2023-05-31T12:26:39;5.47;;;2.78;;
75220;SDS011;63802;53.232;6.570;2023-05-31T12:29:05;7.47;;;3.05;;
75220;SDS011;63802;53.232;6.570;2023-05-31T12:31:33;9.30;;;3.55;;
75220;SDS011;63802;53.232;6.570;2023-05-31T12:34:05;8.57;;;3.40;;
75220;SDS011;63802;53.232;6.570;2023-05-31T12:37:03;8.20;;;3.72;;
75220;SDS011;63802;53.232;6.570;2023-05-31T12:39:23;8.90;;;3.80;;
75220;SDS011;63802;53.232;6.570;2023-05-31T12:41:52;7.95;;;3.10;;
75220;SDS011;63802;53.232;6.570;2023-05-31T12:44:19;11.52;;;3.78;;
75220;SDS011;63802;53.232;6.570;2023-05-31T12:46:48;8.73;;;3.80;;
75220;SDS011;63802;53.232;6.570;2023-05-31T12:51:48;8.40;;;3.40;;
75220;SDS011;63802;53.232;6.570;2023-05-31T12:54:34;7.95;;;3.65;;
75220;SDS011;63802;53.232;6.570;2023-05-31T12:57:04;9.10;;;3.58;;
75220;SDS011;63802;53.232;6.570;2023-05-31T12:59:31;4.20;;;2.77;;
75220;SDS011;63802;53.232;6.570;2023-05-31T13:01:58;9.43;;;3.10;;
75220;SDS011;63802;53.232;6.570;2023-05-31T13:04:24;9.95;;;3.63;;
75220;SDS011;63802;53.232;6.570;2023-05-31T13:06:50;10.02;;;3.30;;
75220;SDS011;63802;53.232;6.570;2023-05-31T13:09:16;6.75;;;3.40;;
75220;SDS011;63802;53.232;6.570;2023-05-31T13:11:43;7.07;;;3.15;;
75220;SDS011;63802;53.232;6.570;2023-05-31T13:14:09;9.52;;;3.15;;
75220;SDS011;63802;53.232;6.570;2023-05-31T13:16:38;8.70;;;3.17;;
75220;SDS011;63802;53.232;6.570;2023-05-31T13:19:04;9.32;;;3.40;;
75220;SDS011;63802;53.232;6.570;2023-05-31T13:21:31;11.48;;;2.92;;
75220;SDS011;63802;53.232;6.570;2023-05-31T13:23:57;6.97;;;3.10;;
75220;SDS011;63802;53.232;6.570;2023-05-31T13:26:24;5.57;;;2.60;;
75220;SDS011;63802;53.232;6.570;2023-05-31T13:28:52;10.00;;;3.35;;
75220;SDS011;63802;53.232;6.570;2023-05-31T13:31:18;9.10;;;3.17;;
75220;SDS011;63802;53.232;6.570;2023-05-31T13:33:44;8.15;;;3.53;;
75220;SDS011;63802;53.232;6.570;2023-05-31T13:36:13;8.13;;;3.10;;
75220;SDS011;63802;53.232;6.570;2023-05-31T13:38:39;15.00;;;3.30;;
75220;SDS011;63802;53.232;6.570;2023-05-31T13:41:05;7.95;;;3.30;;
75220;SDS011;63802;53.232;6.570;2023-05-31T13:43:30;8.55;;;3.40;;
75220;SDS011;63802;53.232;6.570;2023-05-31T13:45:57;10.93;;;3.42;;
75220;SDS011;63802;53.232;6.570;2023-05-31T13:48:23;9.50;;;3.25;;
75220;SDS011;63802;53.232;6.570;2023-05-31T13:50:48;5.88;;;2.72;;
75220;SDS011;63802;53.232;6.570;2023-05-31T13:53:14;7.55;;;3.30;;
75220;SDS011;63802;53.232;6.570;2023-05-31T13:55:40;11.60;;;4.32;;
75220;SDS011;63802;53.232;6.570;2023-05-31T13:58:06;9.70;;;2.65;;
75220;SDS011;63802;53.232;6.570;2023-05-31T14:00:32;9.20;;;3.33;;
75220;SDS011;63802;53.232;6.570;2023-05-31T14:02:58;7.88;;;3.13;;
75220;SDS011;63802;53.232;6.570;2023-05-31T14:05:24;7.50;;;3.28;;
75220;SDS011;63802;53.232;6.570;2023-05-31T14:07:51;10.55;;;3.15;;
75220;SDS011;63802;53.232;6.570;2023-05-31T14:10:17;6.80;;;3.03;;
75220;SDS011;63802;53.232;6.570;2023-05-31T14:12:43;8.55;;;2.80;;
75220;SDS011;63802;53.232;6.570;2023-05-31T14:15:09;6.22;;;2.75;;
75220;SDS011;63802;53.232;6.570;2023-05-31T14:17:34;8.68;;;2.97;;
75220;SDS011;63802;53.232;6.570;2023-05-31T14:19:59;12.93;;;3.78;;
75220;SDS011;63802;53.232;6.570;2023-05-31T14:22:25;7.78;;;2.80;;
75220;SDS011;63802;53.232;6.570;2023-05-31T14:24:50;12.50;;;2.92;;
75220;SDS011;63802;53.232;6.570;2023-05-31T14:27:16;11.00;;;3.05;;
75220;SDS011;63802;53.232;6.570;2023-05-31T14:29:43;6.38;;;2.65;;
75220;SDS011;63802;53.232;6.570;2023-05-31T14:32:09;4.30;;;2.38;;
75220;SDS011;63802;53.232;6.570;2023-05-31T14:34:38;8.88;;;3.10;;
75220;SDS011;63802;53.232;6.570;2023-05-31T14:37:04;5.78;;;3.05;;
75220;SDS011;63802;53.232;6.570;2023-05-31T14:39:30;5.72;;;2.55;;
75220;SDS011;63802;53.232;6.570;2023-05-31T14:41:55;4.60;;;2.63;;
75220;SDS011;63802;53.232;6.570;2023-05-31T14:44:22;4.68;;;2.60;;
75220;SDS011;63802;53.232;6.570;2023-05-31T14:46:47;6.22;;;2.83;;
75220;SDS011;63802;53.232;6.570;2023-05-31T14:49:13;10.55;;;3.30;;
75220;SDS011;63802;53.232;6.570;2023-05-31T14:51:38;5.72;;;2.80;;
75220;SDS011;63802;53.232;6.570;2023-05-31T14:54:04;9.10;;;3.25;;
75220;SDS011;63802;53.232;6.570;2023-05-31T14:56:30;12.27;;;3.70;;
75220;SDS011;63802;53.232;6.570;2023-05-31T14:58:56;6.78;;;3.15;;
75220;SDS011;63802;53.232;6.570;2023-05-31T15:01:21;6.53;;;3.30;;
75220;SDS011;63802;53.232;6.570;2023-05-31T15:03:46;6.63;;;3.42;;
75220;SDS011;63802;53.232;6.570;2023-05-31T15:06:12;6.80;;;3.42;;
75220;SDS011;63802;53.232;6.570;2023-05-31T15:08:38;7.63;;;3.72;;
75220;SDS011;63802;53.232;6.570;2023-05-31T15:11:03;7.63;;;3.28;;
75220;SDS011;63802;53.232;6.570;2023-05-31T15:13:29;9.75;;;3.20;;